createdAt,value
2022-10-20T00:02:14.644Z,11.50
2022-10-20T00:04:41.364Z,11.50
2022-10-20T00:07:08.173Z,11.60
2022-10-20T00:09:34.815Z,11.60
2022-10-20T00:12:01.546Z,11.70
2022-10-20T00:14:28.273Z,11.60
2022-10-20T00:16:54.937Z,11.70
2022-10-20T00:19:21.665Z,11.70
2022-10-20T00:21:48.356Z,11.80
2022-10-20T00:24:15.042Z,11.70
2022-10-20T00:26:41.706Z,11.80
2022-10-20T00:29:08.458Z,11.70
2022-10-20T00:31:35.206Z,11.70
2022-10-20T00:34:01.884Z,11.70
2022-10-20T00:36:28.566Z,11.70
2022-10-20T00:39:04.332Z,11.70
2022-10-20T00:41:32.777Z,11.70
2022-10-20T00:44:02.320Z,11.60
2022-10-20T00:46:36.696Z,11.70
2022-10-20T00:49:12.523Z,11.70
2022-10-20T00:51:39.166Z,11.70
2022-10-20T00:54:10.555Z,11.80
2022-10-20T00:56:42.130Z,11.90
2022-10-20T00:59:10.741Z,11.80
2022-10-20T01:01:38.873Z,11.90
2022-10-20T01:04:05.704Z,11.90
2022-10-20T01:06:32.392Z,11.90
2022-10-20T01:08:59.589Z,12.00
2022-10-20T01:11:38.236Z,12.00
2022-10-20T01:14:16.193Z,12.00
2022-10-20T01:16:42.730Z,12.00
2022-10-20T01:19:33.814Z,12.00
2022-10-20T01:22:21.569Z,12.00
2022-10-20T01:24:51.170Z,12.00
2022-10-20T01:27:23.034Z,11.90
2022-10-20T01:30:13.881Z,11.90
2022-10-20T01:32:54.935Z,11.90
2022-10-20T01:35:49.360Z,12.00
2022-10-20T01:38:39.377Z,12.00
2022-10-20T01:41:27.345Z,11.90
2022-10-20T01:43:54.375Z,11.90
2022-10-20T01:46:25.308Z,11.80
2022-10-20T01:48:52.027Z,11.90
2022-10-20T01:51:18.571Z,11.90
2022-10-20T01:53:45.209Z,11.90
2022-10-20T01:56:20.239Z,11.80
2022-10-20T01:59:14.632Z,11.80
2022-10-20T02:01:58.534Z,11.80
2022-10-20T02:05:02.659Z,11.80
2022-10-20T02:07:32.363Z,11.80
2022-10-20T02:10:22.803Z,11.70
2022-10-20T02:12:53.725Z,11.80
2022-10-20T02:15:25.248Z,11.70
2022-10-20T02:18:00.876Z,11.70
2022-10-20T02:20:29.741Z,11.60
2022-10-20T02:23:00.935Z,11.70
2022-10-20T02:25:29.629Z,11.70
2022-10-20T02:28:01.263Z,11.60
2022-10-20T02:30:29.217Z,11.70
2022-10-20T02:32:55.797Z,11.60
2022-10-20T02:35:27.102Z,11.60
2022-10-20T02:37:53.943Z,11.60
2022-10-20T02:40:22.216Z,11.70
2022-10-20T02:42:49.009Z,11.70
2022-10-20T02:45:15.844Z,11.70
2022-10-20T02:47:42.699Z,11.60
2022-10-20T02:50:09.903Z,11.60
2022-10-20T02:52:37.824Z,11.60
2022-10-20T02:55:05.997Z,11.60
2022-10-20T02:57:32.864Z,11.60
2022-10-20T02:59:59.743Z,11.60
2022-10-20T03:02:26.346Z,11.70
2022-10-20T03:04:52.944Z,11.60
2022-10-20T03:07:19.517Z,11.60
2022-10-20T03:09:46.127Z,11.60
2022-10-20T03:12:12.746Z,11.60
2022-10-20T03:14:40.016Z,11.60
2022-10-20T03:17:06.618Z,11.60
2022-10-20T03:19:33.203Z,11.60
2022-10-20T03:21:59.867Z,11.60
2022-10-20T03:24:26.634Z,11.60
2022-10-20T03:26:53.256Z,11.60
2022-10-20T03:29:19.817Z,11.60
2022-10-20T03:31:46.453Z,11.60
2022-10-20T03:34:13.253Z,11.60
2022-10-20T03:36:39.872Z,11.60
2022-10-20T03:39:06.458Z,11.60
2022-10-20T03:41:33.062Z,11.60
2022-10-20T03:43:59.620Z,11.60
2022-10-20T03:46:26.303Z,11.60
2022-10-20T03:48:52.894Z,11.50
2022-10-20T03:51:19.542Z,11.50
2022-10-20T03:53:46.092Z,11.60
2022-10-20T03:56:17.325Z,11.60
2022-10-20T03:58:44.008Z,11.60
2022-10-20T04:01:15.826Z,11.60
2022-10-20T04:03:43.466Z,11.60
2022-10-20T04:06:10.323Z,11.50
2022-10-20T04:08:36.978Z,11.60
2022-10-20T04:11:03.701Z,11.50
2022-10-20T04:13:30.278Z,11.50
2022-10-20T04:15:56.835Z,11.50
2022-10-20T04:18:23.452Z,11.50
2022-10-20T04:20:50.028Z,11.50
2022-10-20T04:23:16.714Z,11.50
2022-10-20T04:25:47.505Z,11.50
2022-10-20T04:28:18.740Z,11.50
2022-10-20T04:30:46.260Z,11.50
2022-10-20T04:33:13.503Z,11.60
2022-10-20T04:35:40.611Z,11.50
2022-10-20T04:38:07.470Z,11.40
2022-10-20T04:40:34.219Z,11.50
2022-10-20T04:43:00.958Z,11.50
2022-10-20T04:45:28.203Z,11.40
2022-10-20T04:47:54.919Z,11.50
2022-10-20T04:50:21.544Z,11.40
2022-10-20T04:52:48.147Z,11.50
2022-10-20T04:55:14.773Z,11.50
2022-10-20T04:57:41.342Z,11.40
2022-10-20T05:00:08.568Z,11.40
2022-10-20T05:02:35.118Z,11.40
2022-10-20T05:05:01.726Z,11.50
2022-10-20T05:07:30.397Z,11.40
2022-10-20T05:09:56.993Z,11.40
2022-10-20T05:12:23.581Z,11.50
2022-10-20T05:14:50.175Z,11.50
2022-10-20T05:17:16.750Z,11.60
2022-10-20T05:19:43.392Z,11.50
2022-10-20T05:22:09.960Z,11.60
2022-10-20T05:24:36.784Z,11.50
2022-10-20T05:27:03.496Z,11.50
2022-10-20T05:29:30.111Z,11.50
2022-10-20T05:31:56.692Z,11.50
2022-10-20T05:34:23.279Z,11.50
2022-10-20T05:36:52.071Z,11.50
2022-10-20T05:39:18.629Z,11.50
2022-10-20T05:41:45.250Z,11.50
2022-10-20T05:44:12.516Z,11.50
2022-10-20T05:46:42.637Z,11.50
2022-10-20T05:49:15.340Z,11.50
2022-10-20T05:51:41.994Z,11.40
2022-10-20T05:54:11.737Z,11.40
2022-10-20T05:56:38.454Z,11.40
2022-10-20T05:59:05.074Z,11.50
2022-10-20T06:01:40.276Z,11.50
2022-10-20T06:04:08.628Z,11.40
2022-10-20T06:06:36.032Z,11.50
2022-10-20T06:09:06.246Z,11.50
2022-10-20T06:11:38.449Z,11.50
2022-10-20T06:14:06.183Z,11.50
2022-10-20T06:16:32.796Z,11.50
2022-10-20T06:19:00.046Z,11.50
2022-10-20T06:21:29.296Z,11.60
2022-10-20T06:23:57.790Z,11.60
2022-10-20T06:26:25.716Z,11.60
2022-10-20T06:29:01.213Z,11.60
2022-10-20T06:31:32.806Z,11.60
2022-10-20T06:34:00.443Z,11.70
2022-10-20T06:36:27.428Z,11.60
2022-10-20T06:38:58.483Z,11.70
2022-10-20T06:41:26.924Z,11.70
2022-10-20T06:43:58.297Z,11.70
2022-10-20T06:46:26.601Z,11.70
2022-10-20T06:48:57.839Z,11.70
2022-10-20T06:51:26.077Z,11.80
2022-10-20T06:53:53.165Z,11.80
2022-10-20T06:56:22.851Z,11.80
2022-10-20T06:58:52.194Z,11.80
2022-10-20T07:01:24.114Z,11.80
2022-10-20T07:03:53.179Z,11.80
2022-10-20T07:06:28.443Z,11.80
2022-10-20T07:08:58.395Z,11.90
2022-10-20T07:11:30.064Z,11.90
2022-10-20T07:13:58.696Z,12.00
2022-10-20T07:16:27.757Z,11.90
2022-10-20T07:18:54.597Z,12.00
2022-10-20T07:21:23.422Z,12.00
2022-10-20T07:23:50.576Z,12.00
2022-10-20T07:26:26.953Z,12.00
2022-10-20T07:28:56.183Z,12.00
2022-10-20T07:31:29.088Z,12.00
2022-10-20T07:34:07.284Z,12.00
2022-10-20T07:36:42.310Z,12.00
2022-10-20T07:39:11.038Z,12.00
2022-10-20T07:41:39.329Z,12.10
2022-10-20T07:44:06.946Z,12.10
2022-10-20T07:46:33.511Z,12.00
2022-10-20T07:49:24.032Z,12.10
2022-10-20T07:51:46.830Z,12.20
2022-10-20T07:54:13.479Z,12.30
2022-10-20T07:56:44.582Z,12.40
2022-10-20T07:59:11.905Z,12.30
2022-10-20T08:01:39.101Z,12.40
2022-10-20T08:04:05.773Z,12.40
2022-10-20T08:06:32.533Z,12.50
2022-10-20T08:09:00.060Z,12.50
2022-10-20T08:11:26.830Z,12.50
2022-10-20T08:13:53.498Z,12.60
2022-10-20T08:16:34.032Z,12.60
2022-10-20T08:19:08.151Z,12.60
2022-10-20T08:21:34.864Z,12.70
2022-10-20T08:24:02.858Z,12.70
2022-10-20T08:26:29.763Z,12.80
2022-10-20T08:28:56.407Z,12.80
2022-10-20T08:31:23.363Z,12.90
2022-10-20T08:33:52.933Z,12.90
2022-10-20T08:36:20.325Z,12.90
2022-10-20T08:38:47.186Z,12.90
2022-10-20T08:41:21.042Z,12.90
2022-10-20T08:43:50.782Z,13.00
2022-10-20T08:46:20.833Z,13.00
2022-10-20T08:48:48.727Z,13.10
2022-10-20T08:51:19.979Z,13.00
2022-10-20T08:53:49.214Z,13.10
2022-10-20T08:56:17.268Z,13.10
2022-10-20T08:58:45.222Z,13.10
2022-10-20T09:01:20.482Z,13.20
2022-10-20T09:03:52.427Z,13.20
2022-10-20T09:06:19.057Z,13.20
2022-10-20T09:08:47.086Z,13.30
2022-10-20T09:11:22.513Z,13.40
2022-10-20T09:16:40.954Z,13.50
2022-10-20T09:19:28.389Z,13.50
2022-10-20T09:22:05.417Z,13.50
2022-10-20T09:24:35.115Z,13.70
2022-10-20T09:27:23.912Z,13.80
2022-10-20T09:29:50.659Z,13.80
2022-10-20T09:32:48.154Z,13.70
2022-10-20T09:35:18.571Z,13.70
2022-10-20T09:37:58.365Z,13.80
2022-10-20T09:40:26.438Z,13.80
2022-10-20T09:42:59.787Z,13.80
2022-10-20T09:45:32.427Z,13.80
2022-10-20T09:48:23.244Z,13.80
2022-10-20T09:50:56.083Z,13.80
2022-10-20T09:53:29.419Z,13.60
2022-10-20T09:55:56.485Z,13.70
2022-10-20T09:58:30.631Z,13.70
2022-10-20T10:01:02.409Z,13.70
2022-10-20T10:03:37.627Z,13.70
2022-10-20T10:06:27.698Z,13.60
2022-10-20T10:08:55.198Z,13.50
2022-10-20T10:11:25.639Z,13.60
2022-10-20T10:13:52.943Z,13.70
2022-10-20T10:16:21.919Z,13.70
2022-10-20T10:19:03.550Z,13.80
2022-10-20T10:21:42.741Z,13.70
2022-10-20T10:24:29.667Z,13.70
2022-10-20T10:26:57.132Z,13.80
2022-10-20T10:29:29.277Z,13.70
2022-10-20T10:32:12.565Z,13.70
2022-10-20T10:35:07.757Z,13.80
2022-10-20T10:37:35.872Z,13.80
2022-10-20T10:40:32.843Z,13.80
2022-10-20T10:43:31.327Z,13.90
2022-10-20T10:46:07.878Z,13.80
2022-10-20T10:49:15.849Z,13.80
2022-10-20T10:52:13.548Z,13.70
2022-10-20T10:54:58.660Z,13.80
2022-10-20T10:57:55.648Z,13.60
2022-10-20T11:00:45.770Z,13.50
2022-10-20T11:03:39.805Z,13.50
2022-10-20T11:06:48.918Z,13.50
2022-10-20T11:09:44.880Z,13.60
2022-10-20T11:12:45.469Z,13.40
2022-10-20T11:15:40.360Z,13.30
2022-10-20T11:18:32.595Z,13.20
2022-10-20T11:21:39.032Z,13.20
2022-10-20T11:24:42.593Z,13.30
2022-10-20T11:27:16.262Z,13.20
2022-10-20T11:29:51.313Z,13.10
2022-10-20T11:32:26.371Z,13.00
2022-10-20T11:35:22.473Z,13.10
2022-10-20T11:38:07.091Z,13.10
2022-10-20T11:40:44.737Z,13.10
2022-10-20T11:43:27.562Z,13.10
2022-10-20T11:46:00.237Z,13.10
2022-10-20T11:48:42.286Z,13.10
2022-10-20T11:51:31.214Z,13.00
2022-10-20T11:54:06.920Z,13.00
2022-10-20T11:56:52.331Z,13.10
2022-10-20T11:59:48.448Z,13.10
2022-10-20T12:02:42.316Z,13.10
2022-10-20T12:05:27.034Z,13.10
2022-10-20T12:08:28.794Z,13.00
2022-10-20T12:11:26.264Z,13.10
2022-10-20T12:14:17.490Z,13.20
2022-10-20T12:17:23.798Z,13.10
2022-10-20T12:19:51.827Z,13.10
2022-10-20T12:22:18.364Z,13.10
2022-10-20T12:24:54.115Z,13.20
2022-10-20T12:27:23.633Z,13.40
2022-10-20T12:30:00.867Z,13.50
2022-10-20T12:32:54.440Z,13.70
2022-10-20T12:35:24.090Z,14.00
2022-10-20T12:38:04.003Z,13.90
2022-10-20T12:40:43.118Z,13.90
2022-10-20T12:43:25.949Z,14.00
2022-10-20T12:45:58.183Z,13.80
2022-10-20T12:48:25.695Z,13.80
2022-10-20T12:50:53.324Z,13.90
2022-10-20T12:53:28.517Z,14.10
2022-10-20T12:55:58.198Z,14.20
2022-10-20T12:58:30.660Z,14.30
2022-10-20T13:01:00.009Z,14.40
2022-10-20T13:03:40.853Z,14.40
2022-10-20T13:06:22.672Z,14.40
2022-10-20T13:09:04.885Z,14.30
2022-10-20T13:11:46.678Z,14.20
2022-10-20T13:14:13.220Z,14.20
2022-10-20T13:16:51.710Z,14.20
2022-10-20T13:19:30.258Z,14.20
2022-10-20T13:21:57.201Z,14.20
2022-10-20T13:24:35.188Z,14.40
2022-10-20T13:27:09.519Z,14.40
2022-10-20T13:29:39.863Z,14.50
2022-10-20T13:32:16.530Z,14.60
2022-10-20T13:34:55.460Z,14.80
2022-10-20T13:37:49.560Z,14.70
2022-10-20T13:40:36.871Z,14.80
2022-10-20T13:43:06.620Z,14.60
2022-10-20T13:46:14.863Z,14.70
2022-10-20T13:49:03.478Z,14.60
2022-10-20T13:51:33.688Z,15.10
2022-10-20T13:54:03.329Z,16.00
2022-10-20T13:56:34.834Z,16.10
2022-10-20T13:59:18.285Z,16.30
2022-10-20T14:02:24.883Z,16.70
2022-10-20T14:05:07.020Z,17.10
2022-10-20T14:07:42.059Z,17.10
2022-10-20T14:10:24.453Z,17.60
2022-10-20T14:12:51.535Z,17.30
2022-10-20T14:15:29.248Z,17.30
2022-10-20T14:18:02.941Z,16.80
2022-10-20T14:20:31.761Z,16.10
2022-10-20T14:23:00.441Z,15.80
2022-10-20T14:25:27.960Z,16.30
2022-10-20T14:27:56.307Z,16.60
2022-10-20T14:30:24.045Z,16.60
2022-10-20T14:32:51.219Z,16.60
2022-10-20T14:35:29.701Z,16.20
2022-10-20T14:38:18.784Z,16.10
2022-10-20T14:40:57.526Z,15.90
2022-10-20T14:43:45.972Z,15.70
2022-10-20T14:46:22.825Z,15.70
2022-10-20T14:48:50.726Z,15.70
2022-10-20T14:51:40.754Z,15.70
2022-10-20T14:54:36.377Z,15.50
2022-10-20T14:57:09.526Z,15.50
2022-10-20T15:00:02.546Z,15.60
2022-10-20T15:02:35.212Z,15.60
2022-10-20T15:05:23.169Z,15.70
2022-10-20T15:07:50.425Z,15.60
2022-10-20T15:10:21.028Z,16.00
2022-10-20T15:12:50.423Z,16.10
2022-10-20T15:15:18.698Z,16.60
2022-10-20T15:17:47.802Z,16.90
2022-10-20T15:20:29.896Z,17.20
2022-10-20T15:22:58.955Z,17.30
2022-10-20T15:25:28.390Z,17.10
2022-10-20T15:27:58.792Z,17.50
2022-10-20T15:30:26.443Z,17.20
2022-10-20T15:32:54.738Z,16.90
2022-10-20T15:35:24.114Z,17.00
2022-10-20T15:37:52.807Z,16.50
2022-10-20T15:40:22.704Z,16.00
2022-10-20T15:42:49.262Z,15.90
2022-10-20T15:45:21.978Z,15.90
2022-10-20T15:47:48.746Z,16.00
2022-10-20T15:50:15.742Z,15.80
2022-10-20T15:52:42.388Z,15.80
2022-10-20T15:55:22.685Z,15.50
2022-10-20T15:57:50.784Z,15.70
2022-10-20T16:00:18.368Z,15.60
2022-10-20T16:02:45.157Z,15.30
2022-10-20T16:05:12.281Z,15.30
2022-10-20T16:07:39.530Z,15.20
2022-10-20T16:10:07.806Z,15.20
2022-10-20T16:12:34.867Z,15.10
2022-10-20T16:15:02.116Z,14.90
2022-10-20T16:17:28.744Z,14.90
2022-10-20T16:19:55.348Z,14.70
2022-10-20T16:22:22.066Z,14.80
2022-10-20T16:24:48.738Z,14.70
2022-10-20T16:27:16.153Z,14.70
2022-10-20T16:29:45.184Z,14.60
2022-10-20T16:32:14.251Z,14.40
2022-10-20T16:34:40.844Z,14.30
2022-10-20T16:37:08.327Z,14.30
2022-10-20T16:39:34.925Z,14.30
2022-10-20T16:42:01.560Z,14.30
2022-10-20T16:44:28.183Z,14.30
2022-10-20T16:46:54.804Z,14.40
2022-10-20T16:49:21.451Z,14.30
2022-10-20T16:51:48.043Z,14.20
2022-10-20T16:54:14.705Z,14.20
2022-10-20T16:56:41.484Z,14.10
2022-10-20T16:59:08.074Z,14.10
2022-10-20T17:01:34.852Z,14.20
2022-10-20T17:04:01.541Z,14.20
2022-10-20T17:06:28.168Z,14.00
2022-10-20T17:08:55.330Z,14.10
2022-10-20T17:11:27.531Z,14.10
2022-10-20T17:13:54.756Z,14.00
2022-10-20T17:16:27.617Z,14.10
2022-10-20T17:18:56.760Z,14.00
2022-10-20T17:21:23.521Z,14.00
2022-10-20T17:23:50.169Z,14.00
2022-10-20T17:26:22.212Z,13.90
2022-10-20T17:28:49.505Z,14.10
2022-10-20T17:31:17.677Z,14.00
2022-10-20T17:33:45.112Z,14.10
2022-10-20T17:36:12.640Z,13.90
2022-10-20T17:38:41.113Z,13.90
2022-10-20T17:41:10.669Z,13.90
2022-10-20T17:43:37.343Z,13.90
2022-10-20T17:46:09.186Z,13.90
2022-10-20T17:48:36.797Z,13.90
2022-10-20T17:51:07.406Z,13.80
2022-10-20T17:53:35.794Z,13.90
2022-10-20T17:56:12.489Z,13.90
2022-10-20T17:58:40.824Z,13.90
2022-10-20T18:01:30.451Z,13.90
2022-10-20T18:04:08.816Z,13.90
2022-10-20T18:06:36.100Z,13.90
2022-10-20T18:09:12.598Z,13.80
2022-10-20T18:11:42.423Z,13.80
2022-10-20T18:14:09.047Z,13.90
2022-10-20T18:16:37.198Z,13.80
2022-10-20T18:19:04.548Z,13.80
2022-10-20T18:21:32.397Z,13.90
2022-10-20T18:24:07.313Z,13.80
2022-10-20T18:26:36.295Z,13.80
2022-10-20T18:29:07.575Z,13.80
2022-10-20T18:31:36.073Z,13.80
2022-10-20T18:34:06.953Z,13.70
2022-10-20T18:36:36.895Z,13.80
2022-10-20T18:39:07.189Z,13.80
2022-10-20T18:41:38.169Z,13.90
2022-10-20T18:44:11.966Z,13.80
2022-10-20T18:46:39.525Z,13.80
2022-10-20T18:49:07.980Z,13.80
2022-10-20T18:51:35.882Z,13.80
2022-10-20T18:54:04.799Z,13.90
2022-10-20T18:56:31.597Z,13.80
2022-10-20T18:59:02.148Z,13.80
2022-10-20T19:01:31.596Z,13.80
2022-10-20T19:03:59.753Z,13.80
2022-10-20T19:06:30.281Z,13.70
2022-10-20T19:09:08.609Z,13.70
2022-10-20T19:11:38.163Z,13.70
2022-10-20T19:14:05.332Z,13.70
2022-10-20T19:16:33.911Z,13.70
2022-10-20T19:19:02.672Z,13.70
2022-10-20T19:21:30.612Z,13.70
2022-10-20T19:24:06.026Z,13.70
2022-10-20T19:26:38.813Z,13.60
2022-10-20T19:29:08.658Z,13.70
2022-10-20T19:31:40.195Z,13.70
2022-10-20T19:34:16.589Z,13.60
2022-10-20T19:36:46.530Z,13.70
2022-10-20T19:39:16.119Z,13.70
2022-10-20T19:41:43.006Z,13.70
2022-10-20T19:44:15.310Z,13.50
2022-10-20T19:46:43.481Z,13.70
2022-10-20T19:49:10.177Z,13.50
2022-10-20T19:51:37.032Z,13.60
2022-10-20T19:54:04.474Z,13.60
2022-10-20T19:56:31.113Z,13.60
2022-10-20T19:58:57.739Z,13.60
2022-10-20T20:01:24.370Z,13.60
2022-10-20T20:03:51.024Z,13.60
2022-10-20T20:06:20.050Z,13.60
2022-10-20T20:08:49.553Z,13.60
2022-10-20T20:11:23.789Z,13.60
2022-10-20T20:13:55.962Z,13.60
2022-10-20T20:16:23.463Z,13.60
2022-10-20T20:18:50.165Z,13.60
2022-10-20T20:21:17.664Z,13.50
2022-10-20T20:24:00.686Z,13.50
2022-10-20T20:26:29.443Z,13.50
2022-10-20T20:28:56.834Z,13.50
2022-10-20T20:31:24.443Z,13.60
2022-10-20T20:33:52.205Z,13.60
2022-10-20T20:36:19.215Z,13.60
2022-10-20T20:38:45.801Z,13.50
2022-10-20T20:41:14.989Z,13.60
2022-10-20T20:43:44.901Z,13.50
2022-10-20T20:46:18.413Z,13.60
2022-10-20T20:48:45.066Z,13.50
2022-10-20T20:51:11.948Z,13.50
2022-10-20T20:53:39.557Z,13.60
2022-10-20T20:56:12.187Z,13.60
2022-10-20T20:58:40.531Z,13.60
2022-10-20T21:01:14.202Z,13.60
2022-10-20T21:03:41.805Z,13.50
2022-10-20T21:06:10.940Z,13.50
2022-10-20T21:08:40.207Z,13.60
2022-10-20T21:11:07.953Z,13.60
2022-10-20T21:13:35.969Z,13.60
2022-10-20T21:16:25.664Z,13.50
2022-10-20T21:18:58.179Z,13.50
2022-10-20T21:21:27.836Z,13.50
2022-10-20T21:23:55.589Z,13.50
2022-10-20T21:26:23.178Z,13.60
2022-10-20T21:28:50.244Z,13.60
2022-10-20T21:31:18.995Z,13.50
2022-10-20T21:33:49.139Z,13.60
2022-10-20T21:36:18.331Z,13.50
2022-10-20T21:38:45.323Z,13.50
2022-10-20T21:41:14.833Z,13.60
2022-10-20T21:43:44.416Z,13.60
2022-10-20T21:46:15.024Z,13.70
2022-10-20T21:48:43.083Z,13.60
2022-10-20T21:51:15.753Z,13.70
2022-10-20T21:53:42.723Z,13.70
2022-10-20T21:56:10.285Z,13.70
2022-10-20T21:58:37.225Z,13.70
2022-10-20T22:01:15.832Z,13.70
2022-10-20T22:03:43.700Z,13.80
2022-10-20T22:06:11.461Z,13.80
2022-10-20T22:08:40.016Z,13.80
2022-10-20T22:11:09.728Z,13.80
2022-10-20T22:13:36.821Z,13.80
2022-10-20T22:16:06.610Z,13.80
2022-10-20T22:18:33.230Z,13.90
2022-10-20T22:21:11.199Z,13.80
2022-10-20T22:23:41.146Z,13.90
2022-10-20T22:26:08.253Z,13.90
2022-10-20T22:28:35.161Z,13.90
2022-10-20T22:33:33.526Z,14.00
2022-10-20T22:36:00.158Z,14.00
2022-10-20T22:38:26.746Z,14.00
2022-10-20T22:40:58.620Z,14.00
2022-10-20T22:43:25.504Z,14.00
2022-10-20T22:45:52.080Z,14.00
2022-10-20T22:48:18.799Z,13.90
2022-10-20T22:50:45.690Z,13.90
2022-10-20T22:53:12.333Z,13.90
2022-10-20T22:55:38.937Z,13.90
2022-10-20T22:58:05.690Z,13.90
2022-10-20T23:00:32.311Z,13.90
2022-10-20T23:02:58.927Z,13.90
2022-10-20T23:05:25.671Z,13.90
2022-10-20T23:07:52.357Z,13.90
2022-10-20T23:10:18.956Z,13.90
2022-10-20T23:12:45.580Z,13.90
2022-10-20T23:15:12.249Z,13.90
2022-10-20T23:17:39.141Z,13.90
2022-10-20T23:20:06.245Z,13.90
2022-10-20T23:22:32.893Z,13.90
2022-10-20T23:24:59.511Z,13.90
2022-10-20T23:27:26.074Z,13.90
2022-10-20T23:29:52.633Z,13.90
2022-10-20T23:32:19.312Z,13.90
2022-10-20T23:34:45.892Z,14.00
2022-10-20T23:37:12.516Z,13.90
2022-10-20T23:39:39.077Z,13.90
2022-10-20T23:42:07.363Z,13.90
2022-10-20T23:44:34.129Z,14.00
2022-10-20T23:47:00.781Z,14.00
2022-10-20T23:49:27.455Z,14.00
2022-10-20T23:51:54.061Z,14.00
2022-10-20T23:54:20.791Z,14.00
2022-10-20T23:56:47.381Z,14.00
2022-10-20T23:59:14.120Z,14.00
